Time;durP1;ratioP1;P1;durP2;ratioP2;P2;SDS_P1;SDS_P2;PMS_P1;PMS_P2;Temp;Humidity;BMP_temperature;BMP_pressure;BME280_temperature;BME280_humidity;BME280_pressure;Samples;Min_cycle;Max_cycle;Signal;HPM_P1;HPM_P2
2022/11/09 00:00:05;;;;;;;4.32;1.50;;;11.70;93.90;;;;;;5054960;28;20033;-80
2022/11/09 00:02:31;;;;;;;7.53;1.70;;;11.70;93.40;;;;;;5054835;28;20040;-81
2022/11/09 00:04:57;;;;;;;4.30;1.60;;;11.70;93.20;;;;;;5071842;28;20105;-81
2022/11/09 00:07:22;;;;;;;8.52;1.48;;;11.70;93.00;;;;;;5042488;28;20078;-82
2022/11/09 00:09:48;;;;;;;8.00;1.60;;;11.70;93.10;;;;;;5042407;28;20539;-80
2022/11/09 00:12:13;;;;;;;5.88;1.25;;;11.70;93.20;;;;;;5042056;28;20484;-82
2022/11/09 00:14:39;;;;;;;3.10;1.00;;;11.70;93.20;;;;;;5058745;28;20119;-83
2022/11/09 00:17:05;;;;;;;7.47;1.80;;;11.70;93.20;;;;;;5041951;28;20072;-82
2022/11/09 00:19:30;;;;;;;3.45;1.30;;;11.60;93.10;;;;;;5058629;28;20052;-82
2022/11/09 00:21:56;;;;;;;3.90;0.95;;;11.50;93.10;;;;;;5041930;28;20131;-85
2022/11/09 00:24:22;;;;;;;5.22;1.20;;;11.50;93.10;;;;;;5058744;28;20040;-84
2022/11/09 00:26:48;;;;;;;6.55;1.38;;;11.50;93.20;;;;;;5058395;28;20113;-84
2022/11/09 00:29:13;;;;;;;6.20;1.77;;;11.50;93.40;;;;;;5058409;28;20115;-81
2022/11/09 00:31:39;;;;;;;6.78;1.52;;;11.50;93.80;;;;;;5041757;28;20127;-84
2022/11/09 00:34:05;;;;;;;6.28;1.65;;;11.50;93.80;;;;;;5058230;28;20048;-83
2022/11/09 00:36:30;;;;;;;8.55;1.40;;;11.50;94.00;;;;;;5058559;28;20037;-83
2022/11/09 00:38:58;;;;;;;5.13;1.52;;;11.50;93.80;;;;;;5058518;28;20502;-83
2022/11/09 00:41:25;;;;;;;6.65;1.73;;;11.50;93.80;;;;;;5058135;28;20051;-83
2022/11/09 00:43:52;;;;;;;2.92;1.30;;;11.50;93.80;;;;;;5041074;28;20060;-84
2022/11/09 00:46:18;;;;;;;6.10;1.67;;;11.50;93.80;;;;;;5058249;28;20467;-81
2022/11/09 00:48:44;;;;;;;6.03;1.70;;;11.50;93.80;;;;;;5074951;28;20514;-82
2022/11/09 00:51:11;;;;;;;5.53;2.20;;;11.50;93.70;;;;;;5058349;28;20396;-82
2022/11/09 00:53:36;;;;;;;6.65;1.65;;;11.50;93.70;;;;;;5058200;28;20551;-82
2022/11/09 00:56:07;;;;;;;7.90;2.30;;;11.50;93.70;;;;;;5057871;28;20132;-83
2022/11/09 00:58:35;;;;;;;8.93;2.50;;;11.50;93.80;;;;;;5057828;28;20037;-84
2022/11/09 01:01:06;;;;;;;8.35;3.00;;;11.60;93.70;;;;;;5057760;28;20083;-84
2022/11/09 01:03:31;;;;;;;5.95;3.03;;;11.60;93.70;;;;;;5057925;28;20045;-82
2022/11/09 01:06:01;;;;;;;6.35;3.00;;;11.60;93.70;;;;;;5041057;28;20472;-81
2022/11/09 01:08:26;;;;;;;7.03;3.42;;;11.70;93.70;;;;;;5057520;28;20102;-83
2022/11/09 01:10:52;;;;;;;7.88;3.85;;;11.70;94.00;;;;;;5074325;28;20037;-80
2022/11/09 01:13:18;;;;;;;10.80;3.13;;;11.70;94.10;;;;;;5040863;28;20036;-82
2022/11/09 01:15:50;;;;;;;5.70;2.67;;;11.80;94.00;;;;;;5073781;28;20047;-84
2022/11/09 01:18:18;;;;;;;9.05;2.97;;;11.80;93.60;;;;;;5074289;28;20048;-81
2022/11/09 01:20:46;;;;;;;7.07;3.55;;;11.90;93.30;;;;;;5057446;28;20036;-84
2022/11/09 01:23:13;;;;;;;7.60;2.60;;;12.00;93.10;;;;;;5074000;28;20051;-82
2022/11/09 01:25:39;;;;;;;5.45;2.50;;;12.00;93.00;;;;;;5074056;28;20075;-81
2022/11/09 01:28:06;;;;;;;6.47;2.58;;;12.00;93.00;;;;;;5057278;28;20075;-82
2022/11/09 01:30:37;;;;;;;8.48;2.47;;;12.00;93.00;;;;;;5040730;28;20037;-82
2022/11/09 01:33:03;;;;;;;8.65;2.90;;;12.00;93.20;;;;;;5057187;28;20479;-81
2022/11/09 01:35:31;;;;;;;6.93;2.70;;;12.00;93.20;;;;;;5057385;28;20040;-84
2022/11/09 01:37:57;;;;;;;6.63;2.45;;;12.10;93.30;;;;;;5057333;28;20044;-80
2022/11/09 01:40:23;;;;;;;7.88;2.40;;;12.10;93.40;;;;;;5057439;28;20036;-79
2022/11/09 01:42:49;;;;;;;11.80;2.72;;;12.10;93.50;;;;;;5057088;28;20373;-83
2022/11/09 01:45:18;;;;;;;8.98;2.45;;;12.10;93.30;;;;;;5040018;28;20499;-83
2022/11/09 01:47:47;;;;;;;10.30;2.88;;;12.00;93.40;;;;;;5056778;28;20079;-82
2022/11/09 01:50:15;;;;;;;8.60;3.08;;;12.10;93.50;;;;;;5073802;28;20036;-83
2022/11/09 01:52:45;;;;;;;10.88;2.85;;;12.00;93.80;;;;;;5056836;28;20040;-82
2022/11/09 01:55:17;;;;;;;8.85;2.88;;;12.00;93.80;;;;;;5057053;28;20434;-84
2022/11/09 01:57:45;;;;;;;8.38;3.35;;;12.00;94.10;;;;;;5073356;28;20043;-85
2022/11/09 02:00:14;;;;;;;9.63;2.90;;;12.00;94.20;;;;;;5056724;28;20037;-81
2022/11/09 02:02:46;;;;;;;8.20;3.13;;;12.00;94.00;;;;;;5056823;28;20041;-81
2022/11/09 02:05:15;;;;;;;9.50;2.90;;;12.00;94.10;;;;;;5056563;28;20051;-83
2022/11/09 02:07:42;;;;;;;10.40;3.55;;;11.90;94.10;;;;;;5056439;28;20041;-82
2022/11/09 02:10:17;;;;;;;6.65;3.50;;;12.00;94.00;;;;;;5073231;28;20037;-82
2022/11/09 02:12:44;;;;;;;10.38;3.45;;;12.00;94.60;;;;;;5073530;28;20044;-82
2022/11/09 02:15:11;;;;;;;13.25;4.53;;;11.90;94.60;;;;;;5056655;28;20369;-81
2022/11/09 02:17:37;;;;;;;10.18;4.22;;;11.90;94.60;;;;;;5056276;28;20044;-80
2022/11/09 02:20:14;;;;;;;11.13;3.70;;;11.90;94.70;;;;;;5056685;28;20044;-81
2022/11/09 02:22:40;;;;;;;8.68;3.28;;;11.90;94.40;;;;;;5056272;28;20052;-83
2022/11/09 02:25:08;;;;;;;10.27;4.45;;;11.90;94.50;;;;;;5056298;28;20055;-81
2022/11/09 02:27:35;;;;;;;13.65;4.38;;;11.80;94.60;;;;;;5072250;28;20078;-83
2022/11/09 02:30:02;;;;;;;12.98;3.53;;;11.80;94.40;;;;;;5072622;28;20070;-83
2022/11/09 02:32:29;;;;;;;11.82;4.80;;;11.80;94.30;;;;;;5056255;28;20044;-81
2022/11/09 02:34:54;;;;;;;10.43;3.25;;;11.80;94.20;;;;;;5072658;28;20051;-83
2022/11/09 02:37:27;;;;;;;7.63;3.05;;;11.90;94.10;;;;;;5055914;28;20037;-81
2022/11/09 02:39:53;;;;;;;7.13;2.97;;;11.90;93.80;;;;;;5055889;28;20047;-83
2022/11/09 02:42:19;;;;;;;10.95;3.25;;;11.90;93.70;;;;;;5055857;28;20044;-81
2022/11/09 02:44:50;;;;;;;9.85;2.90;;;12.00;93.40;;;;;;5055682;28;20053;-81
2022/11/09 02:47:15;;;;;;;9.95;3.35;;;12.00;93.20;;;;;;5055695;28;20119;-81
2022/11/09 02:49:41;;;;;;;8.95;2.83;;;12.00;93.00;;;;;;5039249;28;20151;-79
2022/11/09 02:52:07;;;;;;;10.80;2.92;;;12.00;92.90;;;;;;5055637;28;20086;-81
2022/11/09 02:54:33;;;;;;;11.18;2.65;;;12.00;92.60;;;;;;5072236;28;20041;-82
2022/11/09 02:56:59;;;;;;;10.75;2.67;;;12.00;92.50;;;;;;5055494;28;20041;-81
2022/11/09 02:59:24;;;;;;;10.05;3.60;;;12.00;92.60;;;;;;5072437;28;20391;-80
2022/11/09 03:01:50;;;;;;;8.15;2.38;;;12.00;92.50;;;;;;5056023;28;20044;-80
2022/11/09 03:04:16;;;;;;;12.70;2.67;;;12.00;92.60;;;;;;5039052;28;20539;-87
2022/11/09 03:06:41;;;;;;;11.38;2.78;;;12.00;92.30;;;;;;5055655;28;20080;-80
2022/11/09 03:09:09;;;;;;;10.45;2.65;;;12.00;92.20;;;;;;5055635;28;20044;-80
2022/11/09 03:11:35;;;;;;;11.73;2.58;;;12.00;92.00;;;;;;5038847;28;20043;-81
2022/11/09 03:14:02;;;;;;;9.98;2.58;;;12.00;92.10;;;;;;5055259;28;20502;-79
2022/11/09 03:16:28;;;;;;;9.10;2.70;;;11.90;92.10;;;;;;5055438;28;20722;-80
2022/11/09 03:18:55;;;;;;;11.30;2.55;;;11.90;92.30;;;;;;5039054;28;20050;-83
2022/11/09 03:21:21;;;;;;;8.13;2.15;;;11.90;92.10;;;;;;5055437;28;20395;-84
2022/11/09 03:23:47;;;;;;;9.00;2.72;;;11.90;92.10;;;;;;5055487;28;20157;-81
2022/11/09 03:26:13;;;;;;;10.30;3.08;;;12.00;91.90;;;;;;5055282;28;20040;-81
2022/11/09 03:28:40;;;;;;;10.55;2.90;;;12.00;91.90;;;;;;5055341;28;20396;-85
2022/11/09 03:31:05;;;;;;;14.32;2.85;;;12.00;91.90;;;;;;5055341;28;20028;-84
2022/11/09 03:33:31;;;;;;;7.65;2.45;;;12.00;91.70;;;;;;5038501;28;20040;-83
2022/11/09 03:35:57;;;;;;;6.50;2.30;;;12.00;91.70;;;;;;5055023;28;20064;-79
2022/11/09 03:38:23;;;;;;;8.38;2.20;;;12.00;91.50;;;;;;5054911;28;20049;-83
2022/11/09 03:40:48;;;;;;;11.50;2.92;;;12.00;91.50;;;;;;5054798;28;20037;-83
2022/11/09 03:43:14;;;;;;;11.18;2.50;;;12.00;91.30;;;;;;5054863;28;20032;-83
2022/11/09 03:45:40;;;;;;;11.50;3.10;;;11.90;91.50;;;;;;5038189;28;20136;-83
2022/11/09 03:48:05;;;;;;;14.60;3.35;;;11.90;91.30;;;;;;5055103;28;20048;-83
2022/11/09 03:50:33;;;;;;;12.02;2.47;;;11.80;91.40;;;;;;5055162;28;20476;-82
2022/11/09 03:53:00;;;;;;;14.35;3.15;;;11.90;91.60;;;;;;5055272;28;20032;-81
2022/11/09 03:55:26;;;;;;;13.02;2.80;;;11.80;91.50;;;;;;5054823;28;20090;-82
2022/11/09 03:57:51;;;;;;;12.48;2.38;;;11.80;91.60;;;;;;5054768;28;20127;-83
2022/11/09 04:00:19;;;;;;;11.95;2.72;;;11.80;91.70;;;;;;5054874;28;20127;-80
2022/11/09 04:02:45;;;;;;;9.15;3.42;;;11.70;91.80;;;;;;5071763;28;20037;-81
2022/11/09 04:05:11;;;;;;;12.45;3.08;;;11.70;91.80;;;;;;5054759;28;20483;-81
2022/11/09 04:07:37;;;;;;;7.63;2.67;;;11.70;92.00;;;;;;5038042;28;20036;-81
2022/11/09 04:10:04;;;;;;;9.10;2.58;;;11.70;92.30;;;;;;5055043;28;20392;-81
2022/11/09 04:12:30;;;;;;;12.35;3.38;;;11.70;92.20;;;;;;5054703;28;20037;-83
2022/11/09 04:14:56;;;;;;;10.95;2.83;;;11.80;92.30;;;;;;5071524;28;20048;-80
2022/11/09 04:17:21;;;;;;;10.25;2.70;;;11.80;92.30;;;;;;5038050;28;20133;-82
2022/11/09 04:19:47;;;;;;;15.00;4.57;;;11.90;92.10;;;;;;5054918;28;20050;-81
2022/11/09 04:22:13;;;;;;;10.13;2.58;;;11.90;92.10;;;;;;5038336;28;20051;-79
2022/11/09 04:24:38;;;;;;;15.45;3.30;;;11.90;92.30;;;;;;5054807;28;20487;-83
2022/11/09 04:27:05;;;;;;;14.32;3.75;;;12.00;92.10;;;;;;5054439;28;20427;-82
2022/11/09 04:29:30;;;;;;;11.05;2.60;;;12.00;92.00;;;;;;5054629;28;20055;-81
2022/11/09 04:31:56;;;;;;;16.73;3.92;;;12.00;92.10;;;;;;5054774;28;20491;-83
2022/11/09 04:34:22;;;;;;;12.68;3.30;;;11.90;92.10;;;;;;5071166;28;20042;-80
2022/11/09 04:36:47;;;;;;;11.18;2.58;;;12.00;92.20;;;;;;5054684;28;20063;-81
2022/11/09 04:39:13;;;;;;;14.32;2.58;;;11.90;92.10;;;;;;5054533;28;20047;-80
2022/11/09 04:41:39;;;;;;;8.68;2.95;;;11.90;92.00;;;;;;5054598;28;20033;-84
2022/11/09 04:44:04;;;;;;;12.73;3.30;;;11.90;92.00;;;;;;5037561;28;20138;-82
2022/11/09 04:46:30;;;;;;;10.30;2.47;;;11.90;92.00;;;;;;5054286;28;20404;-82
2022/11/09 04:48:56;;;;;;;11.70;3.10;;;11.90;92.10;;;;;;5054638;28;20037;-80
2022/11/09 04:51:22;;;;;;;16.75;2.67;;;11.90;92.10;;;;;;5055414;28;20468;-80
2022/11/09 04:53:47;;;;;;;11.27;3.45;;;11.90;92.00;;;;;;5041361;28;20137;-81
2022/11/09 04:56:13;;;;;;;8.80;2.70;;;12.00;92.00;;;;;;5041504;28;20047;-81
2022/11/09 04:58:39;;;;;;;11.43;2.58;;;11.90;92.00;;;;;;5041314;28;20048;-84
2022/11/09 05:01:12;;;;;;;10.52;3.22;;;11.90;92.00;;;;;;5074485;28;20036;-83
2022/11/09 05:03:38;;;;;;;11.80;2.30;;;11.90;92.20;;;;;;5041129;28;20126;-82
2022/11/09 05:06:30;;;;;;;10.45;2.85;;;11.80;92.20;;;;;;5058055;28;20383;-83
2022/11/09 05:08:54;;;;;;;12.25;2.78;;;11.90;92.20;;;;;;5074360;28;20041;-80
2022/11/09 05:11:20;;;;;;;14.45;3.70;;;11.90;92.20;;;;;;5057503;28;20041;-83
2022/11/09 05:13:46;;;;;;;15.65;3.20;;;11.90;92.20;;;;;;5074285;28;20131;-82
2022/11/09 05:16:12;;;;;;;11.88;3.35;;;11.90;92.30;;;;;;5057491;28;20132;-81
2022/11/09 05:18:38;;;;;;;10.52;3.58;;;11.80;92.30;;;;;;5057553;28;20041;-80
2022/11/09 05:21:04;;;;;;;14.38;2.80;;;11.80;92.10;;;;;;5057504;28;20032;-83
2022/11/09 05:26:14;;;;;;;8.75;2.63;;;11.80;92.30;;;;;;5074649;28;20055;-83
2022/11/09 05:28:40;;;;;;;12.68;2.90;;;11.80;92.20;;;;;;5057307;28;20462;-80
2022/11/09 05:31:06;;;;;;;10.07;2.95;;;11.80;92.30;;;;;;5057431;28;20040;-83
2022/11/09 05:33:32;;;;;;;11.35;3.17;;;11.70;92.30;;;;;;5057607;28;20040;-82
2022/11/09 05:35:58;;;;;;;13.85;2.78;;;11.70;92.50;;;;;;5057241;28;20044;-80
2022/11/09 05:38:24;;;;;;;10.63;2.90;;;11.70;92.50;;;;;;5057112;28;20076;-82
2022/11/09 05:40:51;;;;;;;9.48;2.80;;;11.70;92.40;;;;;;5073869;28;20127;-82
2022/11/09 05:43:17;;;;;;;13.63;3.53;;;11.70;92.50;;;;;;5073810;28;20052;-85
2022/11/09 05:45:43;;;;;;;11.52;2.80;;;11.60;92.80;;;;;;5040384;28;20531;-80
2022/11/09 05:48:15;;;;;;;13.93;2.75;;;11.60;92.90;;;;;;5073799;28;20120;-80
2022/11/09 05:50:41;;;;;;;12.00;3.70;;;11.60;92.80;;;;;;5057396;28;20044;-81
2022/11/09 05:53:08;;;;;;;9.10;3.00;;;11.60;92.90;;;;;;5057113;28;20045;-83
2022/11/09 05:55:34;;;;;;;13.57;3.50;;;11.60;93.00;;;;;;5073751;28;20083;-80
2022/11/09 05:58:00;;;;;;;8.15;2.60;;;11.60;93.00;;;;;;5056922;28;20483;-79
2022/11/09 06:00:26;;;;;;;12.55;3.03;;;11.50;93.10;;;;;;5039947;28;20399;-80
2022/11/09 06:02:51;;;;;;;12.23;2.40;;;11.50;93.00;;;;;;5056586;28;20178;-81
2022/11/09 06:05:19;;;;;;;7.60;2.90;;;11.50;93.10;;;;;;5073171;28;20048;-81
2022/11/09 06:07:45;;;;;;;13.30;3.42;;;11.50;93.10;;;;;;5056441;28;20044;-82
2022/11/09 06:10:11;;;;;;;11.00;3.00;;;11.50;92.90;;;;;;5056533;28;20419;-82
2022/11/09 06:12:36;;;;;;;8.45;2.92;;;11.50;92.90;;;;;;5056354;28;20047;-82
2022/11/09 06:15:03;;;;;;;12.00;3.35;;;11.50;92.70;;;;;;5072992;28;20127;-80
2022/11/09 06:17:28;;;;;;;10.45;2.53;;;11.50;92.70;;;;;;5072955;28;20094;-80
2022/11/09 06:19:54;;;;;;;8.93;2.95;;;11.50;92.80;;;;;;5056566;28;20036;-81
2022/11/09 06:22:20;;;;;;;9.95;2.63;;;11.40;92.60;;;;;;5073247;28;20456;-82
2022/11/09 06:24:45;;;;;;;12.63;4.20;;;11.40;92.70;;;;;;5072758;28;20087;-82
2022/11/09 06:27:11;;;;;;;11.40;2.67;;;11.40;92.70;;;;;;5039615;28;20376;-82
2022/11/09 06:29:36;;;;;;;11.73;5.25;;;11.40;92.70;;;;;;5072792;28;20036;-81
2022/11/09 06:32:02;;;;;;;11.60;2.88;;;11.40;92.60;;;;;;5072695;28;20102;-82
2022/11/09 06:34:29;;;;;;;5.97;2.50;;;11.40;92.40;;;;;;5055981;28;20060;-81
2022/11/09 06:36:55;;;;;;;10.70;2.35;;;11.30;92.30;;;;;;5072837;28;20377;-79
2022/11/09 06:39:21;;;;;;;10.48;2.38;;;11.30;92.30;;;;;;5056053;28;20165;-79
2022/11/09 06:41:46;;;;;;;6.78;2.10;;;11.30;92.30;;;;;;5072655;28;20048;-83
2022/11/09 06:44:12;;;;;;;7.78;2.30;;;11.20;92.30;;;;;;5055538;28;20040;-80
2022/11/09 06:46:38;;;;;;;9.75;3.35;;;11.30;92.30;;;;;;5055673;28;20128;-81
2022/11/09 06:49:04;;;;;;;9.63;2.95;;;11.20;92.20;;;;;;5055291;28;20115;-79
2022/11/09 06:51:29;;;;;;;6.45;2.40;;;11.20;92.50;;;;;;5072027;28;20144;-82
2022/11/09 06:53:55;;;;;;;10.40;3.88;;;11.20;92.50;;;;;;5055197;28;20060;-81
2022/11/09 06:56:21;;;;;;;11.75;3.60;;;11.10;93.40;;;;;;5055569;28;20077;-80
2022/11/09 06:58:46;;;;;;;10.27;2.80;;;11.10;93.80;;;;;;5055376;28;20045;-79
2022/11/09 07:01:15;;;;;;;11.73;3.42;;;11.10;93.80;;;;;;5055128;28;20036;-83
2022/11/09 07:03:41;;;;;;;8.60;3.00;;;11.00;94.20;;;;;;5088925;28;20043;-81
2022/11/09 07:06:09;;;;;;;8.98;3.35;;;11.00;94.30;;;;;;5055473;28;20044;-83
2022/11/09 07:08:36;;;;;;;12.10;3.10;;;11.00;94.20;;;;;;5039258;28;20147;-81
2022/11/09 07:11:11;;;;;;;12.68;3.65;;;11.00;94.40;;;;;;5055523;28;20127;-85
2022/11/09 07:13:38;;;;;;;10.52;2.90;;;11.00;94.40;;;;;;5071650;28;20115;-83
2022/11/09 07:16:05;;;;;;;10.60;2.85;;;11.00;94.40;;;;;;5088734;28;20213;-81
2022/11/09 07:18:31;;;;;;;10.13;3.38;;;11.00;94.40;;;;;;5071788;28;20476;-82
2022/11/09 07:20:57;;;;;;;9.63;2.35;;;11.00;94.30;;;;;;5055531;28;20468;-83
2022/11/09 07:23:23;;;;;;;8.18;2.65;;;11.00;94.20;;;;;;5071753;28;20127;-80
2022/11/09 07:25:48;;;;;;;12.00;3.40;;;11.00;94.30;;;;;;5055530;28;20040;-82
2022/11/09 07:28:14;;;;;;;12.38;3.67;;;11.00;94.30;;;;;;5055145;28;20066;-83
2022/11/09 07:30:40;;;;;;;7.25;2.83;;;11.00;94.30;;;;;;5088675;28;20040;-80
2022/11/09 07:33:21;;;;;;;9.80;2.50;;;11.00;94.20;;;;;;5055087;28;20365;-80
2022/11/09 07:35:47;;;;;;;9.93;2.83;;;11.00;94.00;;;;;;5039275;28;20036;-81
2022/11/09 07:38:14;;;;;;;8.18;2.47;;;11.10;94.00;;;;;;5055219;28;20036;-82
2022/11/09 07:40:40;;;;;;;10.27;3.20;;;11.00;94.00;;;;;;5038600;28;20033;-81
2022/11/09 07:43:07;;;;;;;11.30;3.25;;;11.10;93.90;;;;;;5054967;28;20094;-82
2022/11/09 07:45:34;;;;;;;10.38;3.13;;;11.10;93.90;;;;;;5054771;28;20056;-78
2022/11/09 07:48:03;;;;;;;8.05;2.85;;;11.20;93.70;;;;;;5054857;28;20036;-78
2022/11/09 07:50:30;;;;;;;13.30;3.00;;;11.30;93.60;;;;;;5071824;28;20041;-80
2022/11/09 07:52:57;;;;;;;15.32;2.97;;;11.30;93.40;;;;;;5055407;28;20396;-81
2022/11/09 07:55:23;;;;;;;11.93;2.80;;;11.40;93.30;;;;;;5055488;28;20044;-80
2022/11/09 07:57:54;;;;;;;13.38;2.45;;;11.40;93.30;;;;;;5038953;28;20040;-81
2022/11/09 08:00:20;;;;;;;9.63;2.75;;;11.50;93.10;;;;;;5072681;28;20044;-81
2022/11/09 08:02:48;;;;;;;8.75;2.83;;;11.50;93.20;;;;;;5056870;28;20067;-81
2022/11/09 08:05:14;;;;;;;10.18;3.33;;;11.60;93.10;;;;;;5089360;28;20048;-81
2022/11/09 08:07:40;;;;;;;12.15;3.15;;;11.70;93.00;;;;;;5039936;28;20037;-81
2022/11/09 08:10:06;;;;;;;10.38;2.58;;;11.80;92.80;;;;;;5056501;28;20045;-79
2022/11/09 08:12:31;;;;;;;9.07;2.97;;;11.80;92.70;;;;;;5055241;28;20037;-79
2022/11/09 08:14:57;;;;;;;12.52;2.60;;;11.90;92.50;;;;;;5054979;28;20040;-80
2022/11/09 08:17:22;;;;;;;13.68;3.22;;;11.90;92.30;;;;;;5055396;28;20036;-80
2022/11/09 08:19:48;;;;;;;12.98;3.17;;;11.90;92.10;;;;;;5038507;28;20040;-83
2022/11/09 08:22:14;;;;;;;10.27;3.40;;;11.90;92.20;;;;;;5038536;28;20050;-82
2022/11/09 08:24:39;;;;;;;16.83;3.88;;;11.80;92.10;;;;;;5054756;28;20045;-82
2022/11/09 08:27:05;;;;;;;7.30;3.38;;;11.70;92.40;;;;;;5040824;28;20044;-83
2022/11/09 08:29:31;;;;;;;7.85;2.50;;;11.70;92.30;;;;;;5075862;28;20037;-80
2022/11/09 08:31:57;;;;;;;15.75;2.90;;;11.80;92.40;;;;;;5075677;28;20036;-81
2022/11/09 08:34:23;;;;;;;17.77;4.53;;;11.80;92.10;;;;;;5058669;28;20123;-81
2022/11/09 08:36:49;;;;;;;13.40;3.47;;;11.90;92.20;;;;;;5041920;28;20045;-82
2022/11/09 08:39:15;;;;;;;8.15;3.08;;;12.00;92.20;;;;;;5058534;28;20051;-80
2022/11/09 08:41:40;;;;;;;9.35;3.58;;;12.00;92.00;;;;;;5041981;28;20051;-79
2022/11/09 08:44:06;;;;;;;12.23;2.80;;;12.10;92.00;;;;;;5058613;28;20044;-84
2022/11/09 08:46:32;;;;;;;13.93;3.22;;;12.20;91.70;;;;;;5076430;28;20055;-83
2022/11/09 08:48:57;;;;;;;11.95;3.97;;;12.30;91.40;;;;;;5042380;28;20037;-83
2022/11/09 08:51:23;;;;;;;12.07;3.22;;;12.30;91.40;;;;;;5041878;28;20119;-83
2022/11/09 08:53:50;;;;;;;11.27;4.05;;;12.30;91.30;;;;;;5058111;28;20036;-81
2022/11/09 08:56:17;;;;;;;9.57;3.30;;;12.40;91.30;;;;;;5041781;28;20076;-80
2022/11/09 08:58:44;;;;;;;11.23;3.47;;;12.40;91.30;;;;;;5041661;28;20044;-82
2022/11/09 09:01:10;;;;;;;12.85;3.00;;;12.50;90.60;;;;;;5074875;28;20113;-84
2022/11/09 09:03:37;;;;;;;8.50;2.75;;;12.50;90.90;;;;;;5041115;28;20044;-84
2022/11/09 09:06:07;;;;;;;10.95;3.00;;;12.50;90.70;;;;;;5074700;28;20044;-83
2022/11/09 09:08:33;;;;;;;12.70;3.00;;;12.50;90.60;;;;;;5057708;28;20036;-82
2022/11/09 09:11:03;;;;;;;9.07;2.72;;;12.50;90.80;;;;;;5041365;28;20598;-81
2022/11/09 09:13:29;;;;;;;9.48;3.10;;;12.50;90.70;;;;;;5041053;28;20070;-83
2022/11/09 09:15:55;;;;;;;11.57;4.18;;;12.60;90.80;;;;;;5041291;28;20055;-80
2022/11/09 09:18:21;;;;;;;16.20;3.40;;;12.70;90.20;;;;;;5057720;28;20488;-82
2022/11/09 09:20:46;;;;;;;11.57;3.17;;;12.80;90.20;;;;;;5074325;28;20518;-80
2022/11/09 09:23:14;;;;;;;7.35;2.55;;;12.80;89.80;;;;;;5041116;28;20036;-83
2022/11/09 09:25:40;;;;;;;8.80;2.65;;;12.90;89.60;;;;;;5074334;28;20037;-82
2022/11/09 09:28:05;;;;;;;9.32;3.15;;;13.00;89.60;;;;;;5057674;28;20051;-82
2022/11/09 09:30:31;;;;;;;10.52;3.20;;;13.00;89.20;;;;;;5057710;28;20044;-83
2022/11/09 09:33:00;;;;;;;10.50;3.28;;;13.00;89.00;;;;;;5057613;28;20062;-81
2022/11/09 09:35:27;;;;;;;10.88;2.90;;;13.00;88.70;;;;;;5040814;28;20089;-84
2022/11/09 09:37:53;;;;;;;13.10;3.58;;;13.00;88.90;;;;;;5056737;28;20059;-83
2022/11/09 09:40:33;;;;;;;11.00;2.83;;;13.10;88.60;;;;;;5073841;28;20045;-80
2022/11/09 09:42:59;;;;;;;7.90;2.55;;;13.10;88.90;;;;;;5090622;28;20515;-83
2022/11/09 09:45:32;;;;;;;9.60;3.40;;;13.20;88.70;;;;;;5040086;28;20049;-81
2022/11/09 09:48:20;;;;;;;10.73;3.88;;;13.20;88.60;;;;;;5073833;28;20392;-81
2022/11/09 09:50:51;;;;;;;13.13;5.07;;;13.20;88.50;;;;;;5056961;28;20036;-83
2022/11/09 09:53:41;;;;;;;16.50;3.42;;;13.30;88.50;;;;;;5090494;28;20044;-82
2022/11/09 09:56:20;;;;;;;12.80;3.75;;;13.30;88.40;;;;;;5056757;28;20072;-81
2022/11/09 09:59:18;;;;;;;11.75;4.22;;;13.40;88.30;;;;;;5056676;28;20040;-81
2022/11/09 10:01:44;;;;;;;8.93;3.42;;;13.50;88.30;;;;;;5047731;28;20163;-81
2022/11/09 10:04:23;;;;;;;11.18;3.90;;;13.50;87.70;;;;;;5056737;28;20124;-81
2022/11/09 10:07:06;;;;;;;13.02;3.85;;;13.50;87.70;;;;;;5090048;28;20040;-83
2022/11/09 10:09:48;;;;;;;13.18;4.28;;;13.50;87.80;;;;;;5090208;28;20044;-85
2022/11/09 10:12:37;;;;;;;13.63;4.30;;;13.50;87.60;;;;;;5056589;28;20048;-81
2022/11/09 10:15:08;;;;;;;11.23;3.50;;;13.40;87.80;;;;;;5056491;28;20048;-81
2022/11/09 10:17:57;;;;;;;14.45;4.45;;;13.50;87.80;;;;;;5056355;28;20066;-82
2022/11/09 10:20:35;;;;;;;11.80;3.47;;;13.50;87.70;;;;;;5056611;28;20044;-80
2022/11/09 10:23:19;;;;;;;9.60;3.60;;;13.50;87.10;;;;;;5056395;28;20082;-84
2022/11/09 10:25:47;;;;;;;12.33;4.90;;;13.40;87.30;;;;;;5072535;28;20492;-80
2022/11/09 10:28:15;;;;;;;13.82;4.50;;;13.30;87.50;;;;;;5056166;28;20036;-85
2022/11/09 10:30:41;;;;;;;15.25;4.72;;;13.40;87.30;;;;;;5072834;28;20046;-83
2022/11/09 10:33:09;;;;;;;15.55;4.28;;;13.10;87.50;;;;;;5055801;28;20123;-80
2022/11/09 10:36:01;;;;;;;13.57;4.90;;;13.20;87.60;;;;;;5056572;28;20040;-82
2022/11/09 10:38:41;;;;;;;10.48;4.70;;;13.10;88.00;;;;;;5056177;28;20044;-81
2022/11/09 10:41:26;;;;;;;13.38;4.38;;;13.20;87.80;;;;;;5056326;28;20045;-82
2022/11/09 10:43:52;;;;;;;13.52;4.88;;;13.30;87.50;;;;;;5055724;28;20399;-81
2022/11/09 10:46:20;;;;;;;13.73;4.88;;;13.20;87.80;;;;;;5039119;28;20133;-79
2022/11/09 10:48:46;;;;;;;10.30;4.30;;;13.10;87.80;;;;;;5056212;28;20114;-82
2022/11/09 10:51:36;;;;;;;14.82;5.43;;;13.10;87.50;;;;;;5056953;28;20492;-83
2022/11/09 10:54:35;;;;;;;13.85;5.05;;;13.10;87.90;;;;;;5072355;28;20051;-80
2022/11/09 10:57:15;;;;;;;13.70;4.47;;;13.10;87.80;;;;;;5055580;28;20487;-81
2022/11/09 10:59:57;;;;;;;13.68;5.30;;;13.30;87.70;;;;;;5055647;28;20043;-82
2022/11/09 11:02:25;;;;;;;10.50;4.05;;;13.50;87.40;;;;;;5039318;28;20127;-81
2022/11/09 11:05:17;;;;;;;13.65;3.88;;;13.50;86.60;;;;;;5055442;28;20044;-82
2022/11/09 11:07:44;;;;;;;13.10;4.20;;;13.50;86.70;;;;;;5072339;28;20072;-81
2022/11/09 11:10:15;;;;;;;8.90;4.15;;;13.60;86.50;;;;;;5055922;28;20059;-82
2022/11/09 11:13:01;;;;;;;12.45;4.40;;;13.50;86.60;;;;;;5055636;28;20044;-80
2022/11/09 11:15:45;;;;;;;12.43;4.25;;;13.40;87.00;;;;;;5055309;28;20141;-83
2022/11/09 11:18:19;;;;;;;13.02;5.07;;;13.30;87.10;;;;;;5071962;28;20051;-81
2022/11/09 11:20:46;;;;;;;15.52;5.20;;;13.30;86.80;;;;;;5071963;28;20043;-81
2022/11/09 11:23:21;;;;;;;15.38;4.88;;;13.30;87.30;;;;;;5038869;28;20120;-81
2022/11/09 11:25:52;;;;;;;14.10;4.30;;;13.30;87.40;;;;;;5055246;28;20055;-82
2022/11/09 11:28:41;;;;;;;17.15;4.50;;;13.10;87.40;;;;;;5055230;28;20119;-81
2022/11/09 11:31:12;;;;;;;9.18;4.57;;;13.10;87.60;;;;;;5072027;28;20044;-82
2022/11/09 11:33:38;;;;;;;11.50;4.95;;;13.10;87.60;;;;;;5071877;28;20037;-80
2022/11/09 11:36:24;;;;;;;13.55;5.55;;;13.00;88.20;;;;;;5055377;28;20040;-83
2022/11/09 11:39:19;;;;;;;14.20;5.22;;;13.00;88.60;;;;;;5054758;28;20551;-81
2022/11/09 11:42:03;;;;;;;;;;;12.90;88.70;;;;;;5072372;28;20044;-80
2022/11/09 11:44:38;;;;;;;16.58;6.35;;;12.90;89.80;;;;;;5071462;28;19921;-81
2022/11/09 11:47:18;;;;;;;16.65;6.47;;;12.70;90.70;;;;;;5071557;28;20097;-82
2022/11/09 11:50:01;;;;;;;12.20;5.88;;;12.60;91.80;;;;;;5071928;28;20041;-81
2022/11/09 11:52:34;;;;;;;17.58;6.38;;;12.50;91.00;;;;;;5054941;28;20569;-81
2022/11/09 11:55:32;;;;;;;18.10;7.20;;;12.40;91.70;;;;;;5071708;28;20040;-81
2022/11/09 11:58:36;;;;;;;17.17;6.13;;;12.20;92.70;;;;;;5021956;28;20049;-79
2022/11/09 12:01:17;;;;;;;10.65;3.78;;;12.10;92.60;;;;;;5073872;28;20055;-79
2022/11/09 12:04:09;;;;;;;7.32;2.45;;;11.90;92.30;;;;;;5075658;28;20535;-80
2022/11/09 12:06:59;;;;;;;5.38;1.90;;;11.70;92.90;;;;;;5035959;28;20052;-81
2022/11/09 12:09:51;;;;;;;3.45;1.77;;;11.60;92.70;;;;;;5075540;28;20040;-82
2022/11/09 12:12:30;;;;;;;5.30;1.85;;;11.50;92.80;;;;;;5075691;28;20051;-81
2022/11/09 12:15:04;;;;;;;5.43;2.30;;;11.40;93.00;;;;;;5074335;28;20042;-82
2022/11/09 12:17:56;;;;;;;4.50;2.10;;;11.40;92.40;;;;;;5075159;28;20441;-80
2022/11/09 12:20:47;;;;;;;4.10;1.83;;;11.50;92.10;;;;;;5058539;28;20048;-82
2022/11/09 12:23:22;;;;;;;5.45;2.45;;;11.40;92.40;;;;;;5075333;28;20076;-80
2022/11/09 12:26:31;;;;;;;4.93;2.15;;;11.40;92.30;;;;;;5058406;28;20531;-81
2022/11/09 12:29:22;;;;;;;4.05;1.48;;;11.20;93.00;;;;;;5074275;28;20040;-81
2022/11/09 12:32:15;;;;;;;3.80;1.85;;;11.00;93.30;;;;;;5072145;28;20115;-81
2022/11/09 12:35:13;;;;;;;1.40;1.23;;;11.00;93.40;;;;;;5054341;28;20105;-81
2022/11/09 12:37:47;;;;;;;3.90;1.15;;;10.90;93.10;;;;;;5055546;28;20087;-80
2022/11/09 12:40:25;;;;;;;4.15;1.65;;;10.80;93.40;;;;;;5050108;28;20407;-82
2022/11/09 12:42:57;;;;;;;4.40;1.80;;;10.90;93.60;;;;;;5050404;28;20115;-82
2022/11/09 12:45:33;;;;;;;1.73;1.10;;;10.90;94.00;;;;;;5071082;28;20056;-82
2022/11/09 12:48:04;;;;;;;2.90;1.10;;;10.90;93.40;;;;;;5073868;28;20362;-81
2022/11/09 12:50:31;;;;;;;5.72;1.88;;;11.00;93.20;;;;;;5073762;28;20094;-81
2022/11/09 12:52:58;;;;;;;3.97;1.73;;;11.00;93.50;;;;;;5058362;28;20041;-82
2022/11/09 12:55:51;;;;;;;2.80;1.23;;;11.00;93.20;;;;;;5057686;28;20048;-82